Time;durP1;ratioP1;P1;durP2;ratioP2;P2;SDS_P1;SDS_P2;PMS_P1;PMS_P2;Temp;Humidity;BMP_temperature;BMP_pressure;BME280_temperature;BME280_humidity;BME280_pressure;Samples;Min_cycle;Max_cycle;Signal;HPM_P1;HPM_P2
2021/08/03 00:00:57;;;;;;;13.35;7.50;;;;;;;15.92;74.82;99735.72;4940593;29;19922;-64
2021/08/03 00:03:52;;;;;;;9.07;7.43;;;;;;;15.92;74.66;99728.72;4940759;29;20102;-64
2021/08/03 00:06:45;;;;;;;9.27;7.63;;;;;;;15.94;74.64;99731.34;4940928;29;20054;-64
2021/08/03 00:09:32;;;;;;;12.15;7.72;;;;;;;15.92;74.84;99728.72;4940761;29;20522;-65
2021/08/03 00:12:18;;;;;;;11.73;8.25;;;;;;;15.92;74.68;99736.56;4940341;29;20047;-64
2021/08/03 00:15:05;;;;;;;19.17;8.55;;;;;;;15.91;74.79;99723.53;4940944;29;20058;-64
2021/08/03 00:17:57;;;;;;;9.77;8.40;;;;;;;15.90;74.65;99727.88;4940553;29;20076;-65
2021/08/03 00:20:42;;;;;;;11.43;8.95;;;;;;;15.89;74.97;99731.38;4940733;29;20168;-65
2021/08/03 00:23:26;;;;;;;10.00;7.97;;;;;;;15.91;74.75;99728.78;4940897;29;20463;-64
2021/08/03 00:26:12;;;;;;;14.38;8.32;;;;;;;15.89;74.80;99723.53;4940539;29;20463;-64
2021/08/03 00:28:56;;;;;;;12.68;9.40;;;;;;;15.90;74.68;99729.66;4955033;29;20414;-64
2021/08/03 00:31:41;;;;;;;13.30;9.38;;;;;;;15.89;74.79;99720.06;4940091;29;20045;-64
2021/08/03 00:34:25;;;;;;;13.07;10.20;;;;;;;15.89;75.00;99723.53;4955297;29;20533;-64
2021/08/03 00:37:09;;;;;;;;;;;;;;;15.88;74.97;99710.50;4943996;29;20046;-64
2021/08/03 00:39:53;;;;;;;18.48;10.90;;;;;;;15.88;74.83;99713.13;4944337;29;19921;-65
2021/08/03 00:42:37;;;;;;;17.73;12.43;;;;;;;15.87;74.86;99711.38;4943781;29;20156;-65
2021/08/03 00:45:21;;;;;;;18.85;11.95;;;;;;;15.88;74.92;99711.38;4944379;29;20138;-65
2021/08/03 00:48:05;;;;;;;;;;;;;;;15.87;74.87;99712.25;4944879;29;20529;-64
2021/08/03 00:50:52;;;;;;;18.38;11.30;;;;;;;15.87;74.93;99719.22;4958063;29;19933;-64
2021/08/03 00:53:36;;;;;;;17.33;11.68;;;;;;;15.88;75.03;99711.38;4943716;29;20632;-64
2021/08/03 00:56:20;;;;;;;;;;;;;;;15.88;74.84;99714.00;4944336;29;20095;-64
2021/08/03 00:59:04;;;;;;;15.93;10.35;;;;;;;15.85;74.99;99714.03;4957665;29;19920;-65
2021/08/03 01:01:48;;;;;;;18.27;10.23;;;;;;;15.86;74.98;99713.16;4943635;29;20066;-65
2021/08/03 01:04:32;;;;;;;15.95;9.60;;;;;;;15.88;75.09;99713.13;4943891;29;20071;-64
2021/08/03 01:07:48;;;;;;;12.30;9.50;;;;;;;15.86;75.16;99709.66;4943376;29;20085;-65
2021/08/03 01:10:41;;;;;;;;;;;;;;;15.86;74.95;99710.53;4943810;29;20465;-64
2021/08/03 01:13:47;;;;;;;13.02;9.77;;;;;;;15.85;75.34;99719.25;4943232;29;19980;-64
2021/08/03 01:16:44;;;;;;;14.75;8.80;;;;;;;15.86;75.06;99722.72;4943476;29;20054;-65
2021/08/03 01:19:34;;;;;;;12.25;9.35;;;;;;;15.86;75.14;99712.25;4943555;29;20046;-64
2021/08/03 01:22:39;;;;;;;13.15;8.75;;;;;;;15.86;75.30;99713.16;4957975;29;20090;-64
2021/08/03 01:25:45;;;;;;;11.40;8.68;;;;;;;15.87;75.17;99708.78;4943492;29;20050;-64
2021/08/03 01:28:42;;;;;;;14.35;9.05;;;;;;;15.86;75.23;99707.03;4942812;29;20090;-65
2021/08/03 01:31:30;;;;;;;12.60;8.15;;;;;;;15.88;75.30;99707.88;4942914;29;20569;-64
2021/08/03 01:34:17;;;;;;;11.88;9.13;;;;;;;15.87;75.32;99706.16;4943145;29;20050;-65
2021/08/03 01:37:01;;;;;;;11.57;8.93;;;;;;;15.87;75.34;99690.47;4942945;29;20054;-64
2021/08/03 01:40:08;;;;;;;13.45;9.15;;;;;;;15.87;75.40;99698.31;4957426;29;20057;-64
2021/08/03 01:42:53;;;;;;;12.77;8.38;;;;;;;15.87;75.41;99693.97;4942758;29;20061;-64
2021/08/03 01:45:37;;;;;;;;;;;;;;;15.86;75.24;99693.97;4942976;29;20085;-65
2021/08/03 01:48:23;;;;;;;13.35;8.80;;;;;;;15.84;75.34;99691.34;4956509;28;19978;-65
2021/08/03 01:51:07;;;;;;;15.98;9.07;;;;;;;15.84;75.36;99688.75;4957213;29;20054;-64
2021/08/03 01:53:51;;;;;;;10.38;7.88;;;;;;;15.86;75.49;99683.53;4957294;29;20054;-64
2021/08/03 01:56:40;;;;;;;15.25;8.32;;;;;;;15.84;75.46;99691.34;4942542;29;20133;-65
2021/08/03 01:59:24;;;;;;;13.82;7.93;;;;;;;15.85;75.46;99687.91;4957359;29;20086;-64
2021/08/03 02:02:09;;;;;;;;;;;;;;;15.84;75.30;99691.34;4957700;29;20090;-64
2021/08/03 02:04:57;;;;;;;14.73;7.35;;;;;;;15.84;75.10;99684.38;4942152;29;19925;-64
2021/08/03 02:07:42;;;;;;;10.52;7.70;;;;;;;15.83;75.43;99684.41;4942606;29;20078;-64
2021/08/03 02:10:26;;;;;;;;;;;;;;;15.82;75.31;99688.75;4942248;29;20133;-65
2021/08/03 02:13:11;;;;;;;10.40;7.63;;;;;;;15.82;75.49;99678.28;4942225;29;19925;-64
2021/08/03 02:15:55;;;;;;;;;;;;;;;15.81;75.35;99681.78;4943087;29;20058;-64
2021/08/03 02:18:40;;;;;;;11.50;7.60;;;;;;;15.81;75.53;99676.56;4942426;29;20282;-64
2021/08/03 02:21:24;;;;;;;13.63;7.57;;;;;;;15.81;75.61;99676.56;4942548;29;20432;-65
2021/08/03 02:24:08;;;;;;;;;;;;;;;15.80;75.63;99668.75;4942908;29;20050;-64
2021/08/03 02:26:52;;;;;;;12.77;8.52;;;;;;;15.80;75.78;99674.81;4956333;29;20413;-65
2021/08/03 02:29:39;;;;;;;12.30;7.90;;;;;;;15.81;75.55;99673.94;4942009;29;20655;-65
2021/08/03 02:32:32;;;;;;;14.93;8.05;;;;;;;15.81;75.46;99673.09;4942124;29;20057;-64
2021/08/03 02:35:21;;;;;;;15.93;8.73;;;;;;;15.82;75.72;99673.06;4941697;29;20110;-64
2021/08/03 02:38:09;;;;;;;17.80;8.85;;;;;;;15.81;75.67;99666.09;4942105;29;20050;-64
2021/08/03 02:40:55;;;;;;;12.00;8.93;;;;;;;15.81;75.76;99671.34;4941518;29;20055;-64
2021/08/03 02:43:40;;;;;;;12.23;8.40;;;;;;;15.82;75.73;99672.22;4942003;29;20042;-64
2021/08/03 02:46:29;;;;;;;13.23;8.40;;;;;;;15.82;75.81;99664.38;4942043;29;20087;-64
2021/08/03 02:49:16;;;;;;;15.13;8.55;;;;;;;15.82;75.64;99673.06;4941869;29;20407;-65
2021/08/03 02:52:04;;;;;;;14.60;8.00;;;;;;;15.83;75.81;99671.34;4956058;29;20081;-64
2021/08/03 02:55:01;;;;;;;20.98;8.52;;;;;;;15.81;75.68;99663.50;4941510;29;20419;-64
2021/08/03 02:57:50;;;;;;;14.48;8.43;;;;;;;15.82;75.68;99667.84;4955700;29;20050;-63
2021/08/03 03:00:38;;;;;;;11.85;8.73;;;;;;;15.82;75.82;99667.00;4941152;29;20074;-64
2021/08/03 03:03:24;;;;;;;19.58;9.73;;;;;;;15.81;75.69;99666.09;4956085;29;20057;-64
2021/08/03 03:06:11;;;;;;;10.45;8.38;;;;;;;15.81;75.69;99666.09;4955892;29;20083;-64
2021/08/03 03:08:55;;;;;;;9.80;7.95;;;;;;;15.82;75.68;99661.75;4941540;29;20057;-64
2021/08/03 03:11:40;;;;;;;9.48;8.05;;;;;;;15.80;75.64;99658.31;4941150;29;20423;-64
2021/08/03 03:14:29;;;;;;;;;;;;;;;15.79;75.88;99654.84;4941566;29;20046;-64
2021/08/03 03:17:16;;;;;;;14.93;7.95;;;;;;;15.78;75.87;99647.88;4940419;29;20450;-64
2021/08/03 03:20:03;;;;;;;11.15;8.48;;;;;;;15.79;75.88;99644.38;4941618;29;20050;-65
2021/08/03 03:22:49;;;;;;;10.52;7.68;;;;;;;15.79;75.92;99647.00;4941186;29;20058;-64
2021/08/03 03:25:33;;;;;;;9.77;8.18;;;;;;;15.79;75.66;99641.78;4940831;29;20102;-64
2021/08/03 03:28:24;;;;;;;;;;;;;;;15.79;75.81;99641.78;4941357;29;20458;-64
2021/08/03 03:31:09;;;;;;;15.40;8.60;;;;;;;15.78;75.80;99629.59;4955569;29;20021;-64
2021/08/03 03:33:56;;;;;;;8.88;7.95;;;;;;;15.78;76.13;99637.44;4955778;29;20130;-64
2021/08/03 03:36:42;;;;;;;10.35;8.20;;;;;;;15.79;75.77;99640.88;4941299;29;20083;-63
2021/08/03 03:39:27;;;;;;;10.25;7.60;;;;;;;15.79;75.87;99640.88;4954979;29;20066;-64
2021/08/03 03:42:11;;;;;;;11.52;8.38;;;;;;;15.78;75.92;99640.03;4941120;29;20086;-64
2021/08/03 03:44:55;;;;;;;10.50;9.27;;;;;;;15.78;75.98;99640.03;4955605;29;20090;-64
2021/08/03 03:47:46;;;;;;;15.77;8.35;;;;;;;15.77;75.84;99646.16;4941289;29;20118;-64
2021/08/03 03:50:35;;;;;;;10.85;8.55;;;;;;;15.77;75.60;99645.25;4941015;29;20050;-65
2021/08/03 03:53:22;;;;;;;15.63;8.60;;;;;;;15.75;75.71;99650.53;4940951;29;20058;-64
2021/08/03 03:56:07;;;;;;;12.32;9.60;;;;;;;15.76;75.80;99653.97;4941198;29;20094;-64
2021/08/03 03:59:01;;;;;;;12.18;9.38;;;;;;;15.76;76.08;99657.47;4941029;29;20086;-64
2021/08/03 04:01:50;;;;;;;;;;;;;;;15.73;75.84;99665.34;4941371;29;20054;-64
2021/08/03 04:04:38;;;;;;;13.18;9.40;;;;;;;15.72;75.88;99665.38;4940669;29;19974;-65
2021/08/03 04:07:26;;;;;;;13.68;9.93;;;;;;;15.72;75.99;99673.22;4940436;29;20050;-64
2021/08/03 04:10:10;;;;;;;19.65;10.35;;;;;;;15.71;75.88;99674.09;4940527;28;20070;-65
2021/08/03 04:12:56;;;;;;;23.20;9.80;;;;;;;15.72;75.83;99688.88;4944239;29;20406;-65
2021/08/03 04:15:40;;;;;;;12.93;9.98;;;;;;;15.71;76.00;99685.41;4944218;29;20094;-65
2021/08/03 04:18:24;;;;;;;13.80;9.43;;;;;;;15.70;75.97;99677.59;4944739;29;20132;-64
2021/08/03 04:21:22;;;;;;;12.32;10.25;;;;;;;15.71;75.80;99664.50;4959244;29;20053;-64
2021/08/03 04:24:22;;;;;;;11.77;9.32;;;;;;;15.71;75.92;99667.09;4958936;29;20062;-64
2021/08/03 04:27:18;;;;;;;13.68;9.65;;;;;;;15.72;76.02;99671.44;4944214;29;20086;-64
2021/08/03 04:30:15;;;;;;;14.80;10.52;;;;;;;15.72;75.75;99676.66;4958827;29;20513;-64
2021/08/03 04:32:59;;;;;;;13.13;11.13;;;;;;;15.73;76.08;99672.28;4958482;29;20058;-63
2021/08/03 04:35:43;;;;;;;16.33;10.30;;;;;;;15.71;75.97;99676.69;4944266;29;20055;-64
2021/08/03 04:38:27;;;;;;;16.58;10.77;;;;;;;15.70;76.21;99669.75;4943930;29;20054;-65
2021/08/03 04:41:22;;;;;;;14.57;10.55;;;;;;;15.71;76.12;99661.03;4944230;29;20070;-64
2021/08/03 04:44:14;;;;;;;13.95;10.85;;;;;;;15.68;76.05;99652.34;4943995;29;20054;-64
2021/08/03 04:47:12;;;;;;;15.85;10.20;;;;;;;15.70;75.99;99656.69;4943662;29;20053;-64
2021/08/03 04:50:22;;;;;;;13.25;10.35;;;;;;;15.68;76.12;99648.84;4944123;29;20055;-64
2021/08/03 04:53:19;;;;;;;15.32;9.88;;;;;;;15.67;76.27;99642.78;4943984;29;20093;-64
2021/08/03 04:56:15;;;;;;;13.48;10.02;;;;;;;15.69;76.00;99642.75;4944037;29;20403;-64
2021/08/03 04:59:07;;;;;;;20.33;9.85;;;;;;;15.66;76.18;99633.19;4943546;29;20057;-64
2021/08/03 05:01:51;;;;;;;13.15;9.23;;;;;;;15.68;76.42;99633.16;4942895;29;20414;-63
2021/08/03 05:04:35;;;;;;;12.13;9.27;;;;;;;15.68;75.78;99633.16;4943980;29;20046;-64
2021/08/03 05:07:28;;;;;;;11.38;9.02;;;;;;;15.68;76.19;99633.16;4943330;29;20086;-64
2021/08/03 05:10:27;;;;;;;13.25;8.68;;;;;;;15.66;76.20;99622.75;4943170;29;20123;-64
2021/08/03 05:13:25;;;;;;;12.60;9.98;;;;;;;15.66;76.06;99620.13;4943575;29;20054;-64
2021/08/03 05:16:17;;;;;;;14.05;10.02;;;;;;;15.66;76.06;99629.72;4943130;29;20122;-64
2021/08/03 05:19:07;;;;;;;11.48;10.10;;;;;;;15.67;76.20;99621.88;4943233;29;20058;-64
2021/08/03 05:21:56;;;;;;;12.55;10.20;;;;;;;15.66;76.11;99620.13;4942544;28;20077;-64
2021/08/03 05:24:51;;;;;;;12.00;9.95;;;;;;;15.65;76.27;99628.84;4943135;29;20051;-63
2021/08/03 05:27:38;;;;;;;11.85;10.23;;;;;;;15.66;76.30;99630.59;4943247;29;20407;-64
2021/08/03 05:30:22;;;;;;;13.77;10.98;;;;;;;15.66;76.08;99634.94;4942872;29;20050;-65
2021/08/03 05:33:11;;;;;;;14.55;9.60;;;;;;;15.65;76.26;99644.53;4943322;29;20077;-64
2021/08/03 05:36:07;;;;;;;14.55;10.40;;;;;;;15.63;76.18;99641.06;4943073;29;20419;-63
2021/08/03 05:39:02;;;;;;;12.02;10.07;;;;;;;15.64;76.19;99639.34;4942989;29;20082;-65
2021/08/03 05:41:50;;;;;;;12.05;10.38;;;;;;;15.62;76.28;99641.94;4943450;29;20061;-64
2021/08/03 05:44:37;;;;;;;11.45;9.70;;;;;;;15.63;76.25;99645.44;4943066;29;20399;-64
2021/08/03 05:47:35;;;;;;;13.07;10.65;;;;;;;15.62;76.08;99643.72;4942407;29;20058;-63
2021/08/03 05:50:28;;;;;;;11.77;10.05;;;;;;;15.61;76.28;99648.06;4942646;29;20050;-64
2021/08/03 05:53:25;;;;;;;12.23;9.60;;;;;;;15.62;76.27;99643.72;4942683;29;20054;-65
2021/08/03 05:56:10;;;;;;;14.23;9.75;;;;;;;15.61;76.20;99641.97;4942361;29;20090;-64
2021/08/03 05:58:54;;;;;;;13.77;10.65;;;;;;;15.62;76.38;99630.66;4942467;29;20058;-64
2021/08/03 06:01:52;;;;;;;13.45;9.95;;;;;;;15.61;76.28;99614.09;4942592;29;20130;-64
2021/08/03 06:04:45;;;;;;;11.60;10.35;;;;;;;15.62;76.46;99607.16;4942991;29;20525;-64
2021/08/03 06:07:41;;;;;;;12.38;10.23;;;;;;;15.61;76.34;99614.09;4942506;29;20135;-63
2021/08/03 06:10:38;;;;;;;13.15;10.52;;;;;;;15.61;76.62;99621.94;4942462;29;20042;-64
2021/08/03 06:13:36;;;;;;;14.43;9.93;;;;;;;15.61;76.44;99623.69;4942464;29;20046;-64
2021/08/03 06:16:24;;;;;;;15.63;10.25;;;;;;;15.61;76.32;99627.16;4942689;29;20101;-65
2021/08/03 06:19:15;;;;;;;14.65;10.48;;;;;;;15.60;76.20;99628.03;4956952;29;20049;-64
2021/08/03 06:22:02;;;;;;;11.82;9.52;;;;;;;15.60;76.27;99624.56;4941918;29;20061;-65
2021/08/03 06:24:50;;;;;;;11.75;10.32;;;;;;;15.60;76.43;99625.44;4941960;29;20050;-64
2021/08/03 06:27:34;;;;;;;14.90;11.98;;;;;;;15.60;76.47;99622.81;4956183;29;20130;-64
2021/08/03 06:30:24;;;;;;;;;;;;;;;15.60;76.25;99624.56;4942872;29;20130;-64
2021/08/03 06:33:26;;;;;;;13.10;11.35;;;;;;;15.59;76.44;99622.84;4941474;28;19926;-64
2021/08/03 06:36:23;;;;;;;15.32;11.80;;;;;;;15.60;76.44;99619.34;4941978;29;20090;-64
2021/08/03 06:39:19;;;;;;;14.77;11.45;;;;;;;15.60;76.51;99614.13;4942129;29;20471;-64
2021/08/03 06:42:31;;;;;;;14.40;11.82;;;;;;;15.61;76.43;99616.72;4956285;29;20102;-64
2021/08/03 06:45:20;;;;;;;13.63;11.32;;;;;;;15.62;76.41;99614.97;4941550;29;20525;-65
2021/08/03 06:48:26;;;;;;;13.13;11.68;;;;;;;15.62;76.56;99615.81;4941579;29;20470;-64
2021/08/03 06:51:21;;;;;;;15.52;11.43;;;;;;;15.62;76.49;99614.97;4941786;29;20046;-65
2021/08/03 06:54:11;;;;;;;17.08;12.55;;;;;;;15.62;76.62;99617.59;4941860;29;20164;-64
2021/08/03 06:57:12;;;;;;;13.32;11.75;;;;;;;15.62;76.50;99623.66;4956590;29;20053;-64
2021/08/03 07:00:06;;;;;;;19.85;12.20;;;;;;;15.61;76.70;99614.09;4941563;29;20572;-63
2021/08/03 07:02:52;;;;;;;15.35;12.85;;;;;;;15.62;76.57;99617.59;4941546;29;20082;-65
2021/08/03 07:05:42;;;;;;;13.85;12.30;;;;;;;15.63;76.70;99624.53;4955702;29;20070;-64
2021/08/03 07:08:27;;;;;;;14.10;11.60;;;;;;;15.63;76.58;99619.31;4941343;29;20534;-64
2021/08/03 07:11:12;;;;;;;;;;;;;;;15.62;76.50;99623.66;4941250;29;20050;-64
2021/08/03 07:14:00;;;;;;;16.88;13.70;;;;;;;15.62;76.52;99618.44;4941483;29;20366;-64
2021/08/03 07:16:47;;;;;;;12.38;10.98;;;;;;;15.62;76.63;99621.06;4941255;29;20046;-65
2021/08/03 07:19:34;;;;;;;14.90;11.88;;;;;;;15.63;76.72;99617.56;4941023;29;20159;-65
2021/08/03 07:22:19;;;;;;;16.13;13.25;;;;;;;15.64;76.60;99619.28;4955762;29;20419;-64
2021/08/03 07:25:04;;;;;;;12.95;11.55;;;;;;;15.65;76.67;99615.81;4955963;29;20057;-64
2021/08/03 07:27:51;;;;;;;14.77;11.88;;;;;;;15.64;76.76;99615.84;4940856;29;20049;-64
2021/08/03 07:30:35;;;;;;;13.30;10.57;;;;;;;15.64;76.77;99616.69;4940729;29;20050;-64
2021/08/03 07:33:22;;;;;;;17.38;11.90;;;;;;;15.66;76.79;99616.66;4940879;29;20090;-64
2021/08/03 07:36:12;;;;;;;13.35;10.90;;;;;;;15.65;76.66;99614.91;4941154;29;20053;-64
2021/08/03 07:38:59;;;;;;;12.40;11.10;;;;;;;15.66;76.75;99614.03;4941444;29;20427;-65
2021/08/03 07:41:43;;;;;;;11.73;10.52;;;;;;;15.67;76.73;99610.53;4941256;29;20121;-64
2021/08/03 07:44:27;;;;;;;12.68;10.23;;;;;;;15.66;76.75;99614.03;4940996;29;20078;-65
2021/08/03 07:47:12;;;;;;;15.30;10.80;;;;;;;15.66;76.75;99614.91;4941036;29;20109;-64
2021/08/03 07:49:57;;;;;;;12.02;10.55;;;;;;;15.66;76.70;99617.53;4940902;29;20053;-64
2021/08/03 07:52:42;;;;;;;14.40;10.38;;;;;;;15.67;76.84;99615.78;4941053;29;20130;-65
2021/08/03 07:55:25;;;;;;;11.63;9.90;;;;;;;15.67;76.70;99621.00;4955853;29;20050;-64
2021/08/03 07:58:09;;;;;;;12.50;11.23;;;;;;;15.67;76.66;99624.50;4940798;29;20182;-65
2021/08/03 08:00:53;;;;;;;12.32;10.13;;;;;;;15.65;76.72;99615.81;4940470;29;20186;-64
2021/08/03 08:03:40;;;;;;;12.13;10.88;;;;;;;15.66;76.86;99621.88;4940275;29;20050;-64
2021/08/03 08:06:25;;;;;;;14.93;11.32;;;;;;;15.66;76.80;99616.66;4940536;29;20046;-64
2021/08/03 08:09:12;;;;;;;;;;;;;;;15.65;76.87;99604.47;4955572;29;20135;-65
2021/08/03 08:12:01;;;;;;;13.45;11.35;;;;;;;15.65;76.67;99607.06;4940701;29;19928;-65
2021/08/03 08:14:51;;;;;;;13.57;11.00;;;;;;;15.65;76.83;99607.06;4940573;29;20046;-65
2021/08/03 08:17:38;;;;;;;15.65;12.43;;;;;;;15.65;76.83;99596.63;4954824;29;20538;-65
2021/08/03 08:20:22;;;;;;;13.48;11.00;;;;;;;15.66;76.89;99604.47;4939788;29;20553;-65
2021/08/03 08:23:08;;;;;;;13.10;11.27;;;;;;;15.66;77.02;99608.81;4940679;29;20114;-64
2021/08/03 08:25:52;;;;;;;15.00;12.63;;;;;;;15.66;76.89;99599.25;4940845;29;20062;-64
2021/08/03 08:28:39;;;;;;;13.70;12.07;;;;;;;15.68;77.15;99596.59;4940098;29;20062;-64
2021/08/03 08:31:26;;;;;;;13.57;11.93;;;;;;;15.68;77.04;99596.59;4940465;29;20046;-64
2021/08/03 08:34:14;;;;;;;13.40;12.00;;;;;;;15.68;76.98;99596.59;4940376;29;20102;-64
2021/08/03 08:37:00;;;;;;;14.07;12.68;;;;;;;15.70;77.00;99601.81;4940723;29;20101;-65
2021/08/03 08:39:44;;;;;;;12.30;11.10;;;;;;;15.70;77.05;99600.06;4940686;29;20142;-65
2021/08/03 08:42:29;;;;;;;16.23;13.32;;;;;;;15.69;76.90;99600.94;4954775;29;20045;-66
2021/08/03 08:45:14;;;;;;;15.35;12.80;;;;;;;15.70;77.04;99607.06;4940731;29;20115;-63
2021/08/03 08:47:58;;;;;;;18.15;13.45;;;;;;;15.70;77.07;99599.22;4940287;29;20050;-64
2021/08/03 08:50:45;;;;;;;18.15;12.95;;;;;;;15.69;77.15;99600.94;4954790;29;20046;-65
2021/08/03 08:53:33;;;;;;;13.38;11.95;;;;;;;15.72;77.40;99597.44;4940087;29;20050;-64
2021/08/03 08:56:23;;;;;;;15.60;13.52;;;;;;;15.71;76.99;99606.16;4940811;28;20109;-64
2021/08/03 08:59:10;;;;;;;18.42;14.07;;;;;;;15.70;77.17;99602.69;4943982;29;20050;-64
2021/08/03 09:01:54;;;;;;;17.92;15.32;;;;;;;15.71;77.07;99601.78;4943641;29;20550;-64
2021/08/03 09:04:44;;;;;;;17.40;13.90;;;;;;;15.69;77.05;99600.94;4944192;29;20521;-64
2021/08/03 09:07:30;;;;;;;16.77;14.25;;;;;;;15.70;76.93;99600.06;4943634;29;20053;-64
2021/08/03 09:10:36;;;;;;;16.90;15.10;;;;;;;15.70;76.99;99607.91;4943765;29;20518;-65
2021/08/03 09:13:21;;;;;;;15.82;13.98;;;;;;;15.68;77.04;99607.94;4943245;29;20106;-65
2021/08/03 09:16:06;;;;;;;17.77;14.27;;;;;;;15.68;77.13;99607.06;4943571;29;20114;-64
2021/08/03 09:18:53;;;;;;;16.25;13.65;;;;;;;15.68;77.08;99617.50;4958110;29;20114;-64
2021/08/03 09:21:42;;;;;;;15.70;13.65;;;;;;;15.67;76.99;99618.38;4957749;29;20063;-64
2021/08/03 09:24:29;;;;;;;15.40;13.68;;;;;;;15.68;77.17;99617.50;4957520;29;20122;-64
2021/08/03 09:27:30;;;;;;;16.05;14.35;;;;;;;15.67;77.01;99618.38;4943522;29;20574;-64
2021/08/03 09:30:17;;;;;;;15.45;13.85;;;;;;;15.68;77.00;99609.66;4943303;29;20054;-64
2021/08/03 09:33:05;;;;;;;15.38;13.20;;;;;;;15.67;77.17;99607.94;4943400;29;20058;-64
2021/08/03 09:35:55;;;;;;;15.95;13.38;;;;;;;15.67;76.91;99618.38;4942598;29;20464;-64
2021/08/03 09:38:42;;;;;;;16.02;14.32;;;;;;;15.66;77.30;99614.03;4957356;29;20136;-64
2021/08/03 09:41:47;;;;;;;17.23;15.13;;;;;;;15.67;77.14;99618.38;4957912;29;20069;-64
2021/08/03 09:44:31;;;;;;;24.15;15.63;;;;;;;15.69;77.34;99608.78;4942997;29;20057;-65
2021/08/03 09:47:17;;;;;;;18.63;16.27;;;;;;;15.68;77.22;99607.06;4957186;29;20419;-64
2021/08/03 09:50:08;;;;;;;16.92;14.23;;;;;;;15.68;77.16;99620.13;4942617;29;20066;-64
2021/08/03 09:52:54;;;;;;;19.27;16.10;;;;;;;15.68;77.15;99618.38;4943058;29;20042;-64
2021/08/03 09:55:51;;;;;;;18.63;15.82;;;;;;;15.68;77.16;99621.00;4943109;29;20046;-64
2021/08/03 09:58:54;;;;;;;18.60;15.85;;;;;;;15.66;77.19;99625.38;4942733;29;20106;-64
2021/08/03 10:01:40;;;;;;;18.75;15.02;;;;;;;15.67;77.25;99632.31;4942764;29;20050;-65
2021/08/03 10:04:26;;;;;;;20.02;16.67;;;;;;;15.67;76.96;99628.81;4942787;29;20552;-65
2021/08/03 10:07:10;;;;;;;19.50;17.35;;;;;;;15.67;77.13;99631.44;4956838;29;20054;-64
2021/08/03 10:09:54;;;;;;;29.95;18.70;;;;;;;15.67;77.29;99626.22;4941878;29;20095;-64
2021/08/03 10:12:38;;;;;;;20.67;16.70;;;;;;;15.66;77.16;99627.09;4942311;29;20046;-64
2021/08/03 10:15:22;;;;;;;20.98;16.63;;;;;;;15.66;77.03;99630.59;4942093;29;20159;-65
2021/08/03 10:18:06;;;;;;;20.27;15.35;;;;;;;15.66;77.18;99620.13;4942408;29;20054;-64
2021/08/03 10:20:51;;;;;;;19.75;16.45;;;;;;;15.67;77.26;99611.44;4942571;29;20058;-65
2021/08/03 10:23:42;;;;;;;22.00;17.48;;;;;;;15.69;77.24;99619.22;4941719;29;20050;-65
2021/08/03 10:26:27;;;;;;;19.42;15.77;;;;;;;15.70;77.45;99620.97;4956738;29;20050;-64
2021/08/03 10:29:24;;;;;;;;;;;;;;;15.70;77.12;99622.72;4942435;29;20525;-64
2021/08/03 10:32:44;;;;;;;20.73;16.35;;;;;;;15.69;77.21;99614.00;4941455;29;19926;-65
2021/08/03 10:35:40;;;;;;;16.75;14.63;;;;;;;15.69;77.12;99608.78;4941814;29;20050;-65
2021/08/03 10:38:35;;;;;;;23.80;15.52;;;;;;;15.70;77.21;99605.28;4941667;29;20053;-64
2021/08/03 10:41:50;;;;;;;15.80;14.10;;;;;;;15.71;77.01;99598.34;4942121;29;20569;-64
2021/08/03 10:44:46;;;;;;;;;;;;;;;15.72;77.18;99597.44;4942227;29;20058;-65
2021/08/03 10:47:50;;;;;;;18.90;14.88;;;;;;;15.72;77.03;99598.31;4942064;29;19921;-65
2021/08/03 10:50:49;;;;;;;20.17;14.38;;;;;;;15.73;77.17;99593.94;4956021;29;20561;-66
2021/08/03 10:54:13;;;;;;;17.65;15.05;;;;;;;15.73;77.08;99594.81;4956480;29;20054;-65
2021/08/03 10:57:18;;;;;;;20.30;13.07;;;;;;;15.76;76.88;99599.13;4941368;29;20422;-64
2021/08/03 11:00:10;;;;;;;14.57;13.07;;;;;;;15.76;77.07;99594.78;4956163;29;20049;-65
2021/08/03 11:02:55;;;;;;;15.70;13.10;;;;;;;15.77;76.97;99596.50;4941355;29;20518;-65
2021/08/03 11:05:45;;;;;;;15.68;12.32;;;;;;;15.78;77.24;99599.97;4956192;29;20089;-65
2021/08/03 11:08:43;;;;;;;14.18;12.68;;;;;;;15.80;77.01;99598.22;4941467;29;20046;-64
2021/08/03 11:11:29;;;;;;;14.43;11.82;;;;;;;15.79;76.99;99610.41;4955588;29;20049;-65
2021/08/03 11:14:27;;;;;;;14.70;10.95;;;;;;;15.80;76.96;99603.44;4941804;29;20085;-65
2021/08/03 11:17:33;;;;;;;16.83;11.93;;;;;;;15.82;76.93;99602.53;4955618;29;20102;-65
2021/08/03 11:20:40;;;;;;;13.95;11.27;;;;;;;15.80;76.93;99609.50;4940921;29;20057;-64
2021/08/03 11:24:03;;;;;;;12.82;10.52;;;;;;;15.81;76.98;99608.63;4938542;29;20093;-65
2021/08/03 11:26:55;;;;;;;12.73;10.55;;;;;;;15.83;76.88;99604.25;4941576;29;20058;-65
2021/08/03 11:29:45;;;;;;;14.88;11.40;;;;;;;15.84;76.89;99602.53;4955837;29;20163;-64
2021/08/03 11:32:34;;;;;;;12.43;9.95;;;;;;;15.83;76.81;99604.25;4955091;29;20054;-65
2021/08/03 11:35:31;;;;;;;11.93;9.85;;;;;;;15.85;76.95;99599.06;4955666;29;20526;-65
2021/08/03 11:38:19;;;;;;;11.00;9.90;;;;;;;15.84;76.99;99602.53;4941221;29;20062;-65
2021/08/03 11:41:06;;;;;;;13.13;10.20;;;;;;;15.85;76.94;99604.28;4941177;29;20062;-65
2021/08/03 11:43:53;;;;;;;12.15;10.07;;;;;;;15.85;76.74;99601.66;4941204;29;20518;-64
2021/08/03 11:46:37;;;;;;;16.73;10.07;;;;;;;15.84;76.90;99605.13;4941119;29;20049;-64
2021/08/03 11:49:32;;;;;;;10.93;9.82;;;;;;;15.86;76.86;99600.78;4941078;29;20073;-65
2021/08/03 11:52:29;;;;;;;9.35;8.35;;;;;;;15.86;76.78;99597.28;4955071;29;20046;-64
2021/08/03 11:55:21;;;;;;;10.63;9.45;;;;;;;15.88;76.88;99599.03;4954903;29;20050;-65
2021/08/03 11:58:11;;;;;;;11.35;9.63;;;;;;;15.89;76.79;99603.34;4940803;29;20132;-64
2021/08/03 12:01:00;;;;;;;9.98;8.95;;;;;;;15.89;76.61;99602.50;4940928;29;20122;-65
2021/08/03 12:03:56;;;;;;;11.55;9.38;;;;;;;15.91;76.80;99603.34;4940543;29;20411;-65
2021/08/03 12:06:42;;;;;;;9.15;8.25;;;;;;;15.90;76.85;99599.84;4939945;29;20046;-65
2021/08/03 12:09:28;;;;;;;9.43;8.13;;;;;;;15.91;76.80;99598.97;4940732;29;20081;-64
2021/08/03 12:12:15;;;;;;;11.00;8.55;;;;;;;15.93;76.75;99598.97;4940781;29;20046;-65
2021/08/03 12:15:10;;;;;;;9.15;8.05;;;;;;;15.94;76.67;99600.69;4940631;29;20071;-65
2021/08/03 12:18:10;;;;;;;8.88;7.30;;;;;;;15.95;76.64;99602.41;4940920;29;20053;-65
2021/08/03 12:21:03;;;;;;;7.95;6.90;;;;;;;15.95;76.60;99603.28;4940813;29;20403;-65
2021/08/03 12:23:53;;;;;;;8.30;6.40;;;;;;;15.96;76.61;99593.69;4940634;29;20526;-64
2021/08/03 12:26:46;;;;;;;8.23;6.75;;;;;;;15.96;76.62;99601.53;4940807;29;20106;-65
2021/08/03 12:29:38;;;;;;;7.57;5.47;;;;;;;15.98;76.76;99594.50;4940499;29;20050;-65
2021/08/03 12:32:41;;;;;;;7.45;5.97;;;;;;;15.99;76.42;99598.84;4956676;28;20046;-65
2021/08/03 12:35:39;;;;;;;9.15;5.88;;;;;;;16.02;76.54;99597.97;4943793;29;20549;-65
2021/08/03 12:38:26;;;;;;;12.27;6.57;;;;;;;16.07;76.70;99598.75;4958548;29;20114;-64
2021/08/03 12:41:30;;;;;;;11.30;5.45;;;;;;;16.07;76.48;99591.78;4958782;29;20454;-64
2021/08/03 12:44:35;;;;;;;14.23;4.72;;;;;;;16.09;76.32;99597.00;4943827;29;20171;-64
2021/08/03 12:47:31;;;;;;;10.27;5.32;;;;;;;16.11;76.34;99597.84;4958623;29;20099;-64
2021/08/03 12:50:30;;;;;;;10.80;5.13;;;;;;;16.11;76.21;99592.59;4944348;29;20066;-64
2021/08/03 12:53:31;;;;;;;10.85;5.10;;;;;;;16.12;76.09;99581.25;4958302;29;20537;-64
2021/08/03 12:56:34;;;;;;;6.95;5.10;;;;;;;16.13;76.21;99577.78;4957848;29;20474;-65
2021/08/03 12:59:37;;;;;;;7.38;5.30;;;;;;;16.14;76.25;99580.34;4958356;29;20062;-64
2021/08/03 13:02:21;;;;;;;8.25;5.45;;;;;;;16.14;76.20;99577.72;4943401;29;20058;-64
2021/08/03 13:05:05;;;;;;;8.90;4.47;;;;;;;16.17;76.07;99575.97;4943841;29;20053;-64
2021/08/03 13:07:49;;;;;;;;;;;;;;;16.17;76.19;99574.22;4943940;29;20061;-64
2021/08/03 13:10:37;;;;;;;7.97;5.55;;;;;;;16.17;76.12;99571.63;4957927;29;19925;-64
2021/08/03 13:13:21;;;;;;;7.82;5.07;;;;;;;16.19;76.18;99571.59;4943392;29;20046;-64